sensor_id;sensor_type;location;lat;lon;timestamp;temperature;humidity
49042;DHT22;34859;51.608;11.462;2023-06-14T00:00:04;11.40;99.90
49042;DHT22;34859;51.608;11.462;2023-06-14T00:02:31;11.40;99.90
49042;DHT22;34859;51.608;11.462;2023-06-14T00:04:58;11.40;99.90
49042;DHT22;34859;51.608;11.462;2023-06-14T00:07:35;11.40;99.90
49042;DHT22;34859;51.608;11.462;2023-06-14T00:10:02;11.50;99.90
49042;DHT22;34859;51.608;11.462;2023-06-14T00:12:49;11.50;99.90
49042;DHT22;34859;51.608;11.462;2023-06-14T00:15:17;11.60;99.90
49042;DHT22;34859;51.608;11.462;2023-06-14T00:17:43;11.60;99.90
49042;DHT22;34859;51.608;11.462;2023-06-14T00:20:13;11.40;99.90
49042;DHT22;34859;51.608;11.462;2023-06-14T00:22:39;11.40;99.90
49042;DHT22;34859;51.608;11.462;2023-06-14T00:25:09;11.20;99.90
49042;DHT22;34859;51.608;11.462;2023-06-14T00:27:37;11.10;99.90
49042;DHT22;34859;51.608;11.462;2023-06-14T00:30:03;11.00;99.90
49042;DHT22;34859;51.608;11.462;2023-06-14T00:32:30;10.90;99.90
49042;DHT22;34859;51.608;11.462;2023-06-14T00:34:57;10.80;99.90
49042;DHT22;34859;51.608;11.462;2023-06-14T00:37:23;10.80;99.90
49042;DHT22;34859;51.608;11.462;2023-06-14T00:39:50;10.80;99.90
49042;DHT22;34859;51.608;11.462;2023-06-14T00:42:23;10.70;99.90
49042;DHT22;34859;51.608;11.462;2023-06-14T00:44:50;10.60;99.90
49042;DHT22;34859;51.608;11.462;2023-06-14T00:47:17;10.60;99.90
49042;DHT22;34859;51.608;11.462;2023-06-14T00:49:44;10.50;99.90
49042;DHT22;34859;51.608;11.462;2023-06-14T00:52:11;10.30;99.90
49042;DHT22;34859;51.608;11.462;2023-06-14T00:54:39;10.30;99.90
49042;DHT22;34859;51.608;11.462;2023-06-14T00:57:07;10.30;99.90
49042;DHT22;34859;51.608;11.462;2023-06-14T00:59:34;10.20;99.90
49042;DHT22;34859;51.608;11.462;2023-06-14T01:02:02;10.10;99.90
49042;DHT22;34859;51.608;11.462;2023-06-14T01:04:29;10.10;99.90
49042;DHT22;34859;51.608;11.462;2023-06-14T01:09:58;10.10;99.90
49042;DHT22;34859;51.608;11.462;2023-06-14T01:12:31;10.10;99.90
49042;DHT22;34859;51.608;11.462;2023-06-14T01:15:01;10.10;99.90
49042;DHT22;34859;51.608;11.462;2023-06-14T01:17:28;10.00;99.90
49042;DHT22;34859;51.608;11.462;2023-06-14T01:20:01;10.00;99.90
49042;DHT22;34859;51.608;11.462;2023-06-14T01:22:28;10.00;99.90
49042;DHT22;34859;51.608;11.462;2023-06-14T01:24:55;9.90;99.90
49042;DHT22;34859;51.608;11.462;2023-06-14T01:27:22;10.00;99.90
49042;DHT22;34859;51.608;11.462;2023-06-14T01:29:52;10.00;99.90
49042;DHT22;34859;51.608;11.462;2023-06-14T01:32:26;10.00;99.90
49042;DHT22;34859;51.608;11.462;2023-06-14T01:34:52;10.10;99.90
49042;DHT22;34859;51.608;11.462;2023-06-14T01:37:19;10.10;99.90
49042;DHT22;34859;51.608;11.462;2023-06-14T01:39:47;10.20;99.90
49042;DHT22;34859;51.608;11.462;2023-06-14T01:42:15;10.20;99.90
49042;DHT22;34859;51.608;11.462;2023-06-14T01:44:42;10.30;99.90
49042;DHT22;34859;51.608;11.462;2023-06-14T01:47:09;10.30;99.90
49042;DHT22;34859;51.608;11.462;2023-06-14T01:49:38;10.30;99.90
49042;DHT22;34859;51.608;11.462;2023-06-14T01:52:04;10.30;99.90
49042;DHT22;34859;51.608;11.462;2023-06-14T01:54:31;10.50;99.90
49042;DHT22;34859;51.608;11.462;2023-06-14T01:56:58;10.20;99.90
49042;DHT22;34859;51.608;11.462;2023-06-14T01:59:24;10.00;99.90
49042;DHT22;34859;51.608;11.462;2023-06-14T02:01:51;9.90;99.90
49042;DHT22;34859;51.608;11.462;2023-06-14T02:04:18;9.80;99.90
49042;DHT22;34859;51.608;11.462;2023-06-14T02:06:45;9.80;99.90
49042;DHT22;34859;51.608;11.462;2023-06-14T02:09:12;9.70;99.90
49042;DHT22;34859;51.608;11.462;2023-06-14T02:11:40;9.60;99.90
49042;DHT22;34859;51.608;11.462;2023-06-14T02:14:07;9.50;99.90
49042;DHT22;34859;51.608;11.462;2023-06-14T02:16:37;9.30;99.90
49042;DHT22;34859;51.608;11.462;2023-06-14T02:19:04;9.20;99.90
49042;DHT22;34859;51.608;11.462;2023-06-14T02:21:31;9.20;99.90
49042;DHT22;34859;51.608;11.462;2023-06-14T02:23:58;9.10;99.90
49042;DHT22;34859;51.608;11.462;2023-06-14T02:26:24;9.20;99.90
49042;DHT22;34859;51.608;11.462;2023-06-14T02:28:55;9.20;99.90
49042;DHT22;34859;51.608;11.462;2023-06-14T02:31:22;9.20;99.90
49042;DHT22;34859;51.608;11.462;2023-06-14T02:33:50;9.10;99.90
49042;DHT22;34859;51.608;11.462;2023-06-14T02:36:17;9.00;99.90
49042;DHT22;34859;51.608;11.462;2023-06-14T02:38:43;9.00;99.90
49042;DHT22;34859;51.608;11.462;2023-06-14T02:41:10;9.00;99.90
49042;DHT22;34859;51.608;11.462;2023-06-14T02:43:37;9.00;99.90
49042;DHT22;34859;51.608;11.462;2023-06-14T02:46:04;8.90;99.90
49042;DHT22;34859;51.608;11.462;2023-06-14T02:48:30;8.90;99.90
49042;DHT22;34859;51.608;11.462;2023-06-14T02:50:57;8.90;99.90
49042;DHT22;34859;51.608;11.462;2023-06-14T02:53:23;8.90;99.90
49042;DHT22;34859;51.608;11.462;2023-06-14T02:55:50;9.00;99.90
49042;DHT22;34859;51.608;11.462;2023-06-14T02:58:17;9.00;99.90
49042;DHT22;34859;51.608;11.462;2023-06-14T03:00:44;9.30;99.90
49042;DHT22;34859;51.608;11.462;2023-06-14T03:03:11;9.40;99.90
49042;DHT22;34859;51.608;11.462;2023-06-14T03:06:01;9.70;99.90
49042;DHT22;34859;51.608;11.462;2023-06-14T03:08:30;10.00;99.90
49042;DHT22;34859;51.608;11.462;2023-06-14T03:10:58;10.10;99.90
49042;DHT22;34859;51.608;11.462;2023-06-14T03:13:24;10.00;99.90
49042;DHT22;34859;51.608;11.462;2023-06-14T03:15:52;10.10;99.90
49042;DHT22;34859;51.608;11.462;2023-06-14T03:18:19;10.20;99.90
49042;DHT22;34859;51.608;11.462;2023-06-14T03:20:48;10.20;99.90
49042;DHT22;34859;51.608;11.462;2023-06-14T03:23:17;10.20;99.90
49042;DHT22;34859;51.608;11.462;2023-06-14T03:25:43;10.20;99.90
49042;DHT22;34859;51.608;11.462;2023-06-14T03:28:10;10.20;99.90
49042;DHT22;34859;51.608;11.462;2023-06-14T03:30:37;10.30;99.90
49042;DHT22;34859;51.608;11.462;2023-06-14T03:33:04;10.20;99.90
49042;DHT22;34859;51.608;11.462;2023-06-14T03:35:30;10.10;99.90
49042;DHT22;34859;51.608;11.462;2023-06-14T03:37:57;10.10;99.90
49042;DHT22;34859;51.608;11.462;2023-06-14T03:40:24;9.90;99.90
49042;DHT22;34859;51.608;11.462;2023-06-14T03:42:51;10.00;99.90
49042;DHT22;34859;51.608;11.462;2023-06-14T03:45:18;10.00;99.90
49042;DHT22;34859;51.608;11.462;2023-06-14T03:47:44;9.80;99.90
49042;DHT22;34859;51.608;11.462;2023-06-14T03:50:11;9.80;99.90
49042;DHT22;34859;51.608;11.462;2023-06-14T03:52:38;9.80;99.90
49042;DHT22;34859;51.608;11.462;2023-06-14T03:55:04;9.80;99.90
49042;DHT22;34859;51.608;11.462;2023-06-14T03:57:31;9.80;99.90
49042;DHT22;34859;51.608;11.462;2023-06-14T03:59:57;9.80;99.90
49042;DHT22;34859;51.608;11.462;2023-06-14T04:02:24;9.70;99.90
49042;DHT22;34859;51.608;11.462;2023-06-14T04:04:50;9.80;99.90
49042;DHT22;34859;51.608;11.462;2023-06-14T04:07:20;9.80;99.90
49042;DHT22;34859;51.608;11.462;2023-06-14T04:09:47;9.80;99.90
49042;DHT22;34859;51.608;11.462;2023-06-14T04:12:13;9.90;99.90
49042;DHT22;34859;51.608;11.462;2023-06-14T04:15:00;10.00;99.90
49042;DHT22;34859;51.608;11.462;2023-06-14T04:17:46;10.10;99.90
49042;DHT22;34859;51.608;11.462;2023-06-14T04:20:33;10.30;99.90
49042;DHT22;34859;51.608;11.462;2023-06-14T04:23:20;10.50;99.90
49042;DHT22;34859;51.608;11.462;2023-06-14T04:26:07;10.60;99.90
49042;DHT22;34859;51.608;11.462;2023-06-14T04:28:37;10.80;99.90
49042;DHT22;34859;51.608;11.462;2023-06-14T04:31:07;10.90;99.90
49042;DHT22;34859;51.608;11.462;2023-06-14T04:33:35;11.00;99.90
49042;DHT22;34859;51.608;11.462;2023-06-14T04:36:09;11.10;99.90
49042;DHT22;34859;51.608;11.462;2023-06-14T04:38:37;11.20;99.90
49042;DHT22;34859;51.608;11.462;2023-06-14T04:41:04;11.30;99.90
49042;DHT22;34859;51.608;11.462;2023-06-14T04:43:31;11.40;99.90
49042;DHT22;34859;51.608;11.462;2023-06-14T04:46:06;11.60;99.90
49042;DHT22;34859;51.608;11.462;2023-06-14T04:48:37;11.80;99.90
49042;DHT22;34859;51.608;11.462;2023-06-14T04:51:26;12.00;99.90
49042;DHT22;34859;51.608;11.462;2023-06-14T04:53:55;12.10;99.90
49042;DHT22;34859;51.608;11.462;2023-06-14T04:56:24;12.20;99.90
49042;DHT22;34859;51.608;11.462;2023-06-14T04:58:55;12.30;99.90
49042;DHT22;34859;51.608;11.462;2023-06-14T05:01:22;12.50;99.90
49042;DHT22;34859;51.608;11.462;2023-06-14T05:03:49;12.60;99.90
49042;DHT22;34859;51.608;11.462;2023-06-14T05:06:17;12.60;99.90
49042;DHT22;34859;51.608;11.462;2023-06-14T05:08:43;12.70;99.90
49042;DHT22;34859;51.608;11.462;2023-06-14T05:11:10;12.90;99.90
49042;DHT22;34859;51.608;11.462;2023-06-14T05:13:37;13.00;99.90
49042;DHT22;34859;51.608;11.462;2023-06-14T05:16:22;13.00;99.90
49042;DHT22;34859;51.608;11.462;2023-06-14T05:18:51;13.10;99.90
49042;DHT22;34859;51.608;11.462;2023-06-14T05:21:18;13.20;99.90
49042;DHT22;34859;51.608;11.462;2023-06-14T05:23:45;13.20;99.90
49042;DHT22;34859;51.608;11.462;2023-06-14T05:26:12;13.30;99.90
49042;DHT22;34859;51.608;11.462;2023-06-14T05:28:40;13.40;99.90
49042;DHT22;34859;51.608;11.462;2023-06-14T05:31:07;13.40;99.90
49042;DHT22;34859;51.608;11.462;2023-06-14T05:33:33;13.50;99.90
49042;DHT22;34859;51.608;11.462;2023-06-14T05:36:00;13.60;99.90
49042;DHT22;34859;51.608;11.462;2023-06-14T05:38:27;13.70;99.90
49042;DHT22;34859;51.608;11.462;2023-06-14T05:40:54;13.70;99.90
49042;DHT22;34859;51.608;11.462;2023-06-14T05:43:21;13.80;99.90
49042;DHT22;34859;51.608;11.462;2023-06-14T05:45:47;13.90;99.90
49042;DHT22;34859;51.608;11.462;2023-06-14T05:48:14;14.00;99.90
49042;DHT22;34859;51.608;11.462;2023-06-14T05:50:40;14.00;99.90
49042;DHT22;34859;51.608;11.462;2023-06-14T05:53:10;14.00;99.90
49042;DHT22;34859;51.608;11.462;2023-06-14T05:55:37;14.20;99.90
49042;DHT22;34859;51.608;11.462;2023-06-14T05:58:03;14.20;99.90
49042;DHT22;34859;51.608;11.462;2023-06-14T06:00:30;14.30;99.90
49042;DHT22;34859;51.608;11.462;2023-06-14T06:02:57;14.40;99.90
49042;DHT22;34859;51.608;11.462;2023-06-14T06:05:23;14.50;99.90
49042;DHT22;34859;51.608;11.462;2023-06-14T06:07:50;14.50;99.90
49042;DHT22;34859;51.608;11.462;2023-06-14T06:10:17;14.60;99.90
49042;DHT22;34859;51.608;11.462;2023-06-14T06:12:43;14.60;99.90
49042;DHT22;34859;51.608;11.462;2023-06-14T06:15:10;14.70;99.90
49042;DHT22;34859;51.608;11.462;2023-06-14T06:17:41;14.80;99.90
49042;DHT22;34859;51.608;11.462;2023-06-14T06:20:07;14.90;99.90
49042;DHT22;34859;51.608;11.462;2023-06-14T06:22:55;15.00;99.90
49042;DHT22;34859;51.608;11.462;2023-06-14T06:25:42;15.10;99.90
49042;DHT22;34859;51.608;11.462;2023-06-14T06:28:08;15.10;99.90
49042;DHT22;34859;51.608;11.462;2023-06-14T06:30:35;15.10;99.90
49042;DHT22;34859;51.608;11.462;2023-06-14T06:33:02;15.10;99.90
49042;DHT22;34859;51.608;11.462;2023-06-14T06:35:29;15.20;99.90
49042;DHT22;34859;51.608;11.462;2023-06-14T06:37:57;15.20;99.90
49042;DHT22;34859;51.608;11.462;2023-06-14T06:40:23;15.30;99.90
49042;DHT22;34859;51.608;11.462;2023-06-14T06:42:50;15.30;99.90
49042;DHT22;34859;51.608;11.462;2023-06-14T06:45:17;15.30;99.90
49042;DHT22;34859;51.608;11.462;2023-06-14T06:47:43;15.40;99.90
49042;DHT22;34859;51.608;11.462;2023-06-14T06:50:10;15.50;99.90
49042;DHT22;34859;51.608;11.462;2023-06-14T06:52:37;15.60;99.90
49042;DHT22;34859;51.608;11.462;2023-06-14T06:55:03;15.70;99.90
49042;DHT22;34859;51.608;11.462;2023-06-14T06:57:30;15.70;99.90
49042;DHT22;34859;51.608;11.462;2023-06-14T06:59:59;15.80;99.90
49042;DHT22;34859;51.608;11.462;2023-06-14T07:02:27;15.90;99.90
49042;DHT22;34859;51.608;11.462;2023-06-14T07:04:54;16.00;99.90
49042;DHT22;34859;51.608;11.462;2023-06-14T07:07:21;16.00;99.90
49042;DHT22;34859;51.608;11.462;2023-06-14T07:09:50;16.00;99.90
49042;DHT22;34859;51.608;11.462;2023-06-14T07:12:18;16.10;99.90
49042;DHT22;34859;51.608;11.462;2023-06-14T07:14:45;16.20;99.90
49042;DHT22;34859;51.608;11.462;2023-06-14T07:17:12;16.30;99.90
49042;DHT22;34859;51.608;11.462;2023-06-14T07:19:38;16.30;99.90
49042;DHT22;34859;51.608;11.462;2023-06-14T07:22:05;16.40;99.90
49042;DHT22;34859;51.608;11.462;2023-06-14T07:24:31;16.50;99.90
49042;DHT22;34859;51.608;11.462;2023-06-14T07:26:58;16.60;99.90
49042;DHT22;34859;51.608;11.462;2023-06-14T07:29:25;16.60;99.90
49042;DHT22;34859;51.608;11.462;2023-06-14T07:31:52;16.60;99.90
49042;DHT22;34859;51.608;11.462;2023-06-14T07:34:21;16.70;99.90
49042;DHT22;34859;51.608;11.462;2023-06-14T07:36:48;16.80;99.90
49042;DHT22;34859;51.608;11.462;2023-06-14T07:39:15;16.80;99.90
49042;DHT22;34859;51.608;11.462;2023-06-14T07:41:41;16.90;99.90
49042;DHT22;34859;51.608;11.462;2023-06-14T07:44:08;16.90;99.90
49042;DHT22;34859;51.608;11.462;2023-06-14T07:46:34;17.00;99.90
49042;DHT22;34859;51.608;11.462;2023-06-14T07:49:01;17.10;99.90
49042;DHT22;34859;51.608;11.462;2023-06-14T07:51:27;17.20;99.90
49042;DHT22;34859;51.608;11.462;2023-06-14T07:54:02;17.30;99.90
49042;DHT22;34859;51.608;11.462;2023-06-14T08:00:47;17.50;99.90
49042;DHT22;34859;51.608;11.462;2023-06-14T08:03:18;17.60;99.90
49042;DHT22;34859;51.608;11.462;2023-06-14T08:06:16;17.70;99.90
49042;DHT22;34859;51.608;11.462;2023-06-14T08:08:43;17.80;99.90
49042;DHT22;34859;51.608;11.462;2023-06-14T08:11:11;18.00;99.90
49042;DHT22;34859;51.608;11.462;2023-06-14T08:13:49;18.10;99.90
49042;DHT22;34859;51.608;11.462;2023-06-14T08:19:53;18.30;99.90
49042;DHT22;34859;51.608;11.462;2023-06-14T08:22:43;18.30;99.90
49042;DHT22;34859;51.608;11.462;2023-06-14T08:25:15;18.50;99.90
49042;DHT22;34859;51.608;11.462;2023-06-14T08:27:42;18.60;99.90
49042;DHT22;34859;51.608;11.462;2023-06-14T08:30:21;18.80;99.90
49042;DHT22;34859;51.608;11.462;2023-06-14T08:36:02;18.90;99.90
49042;DHT22;34859;51.608;11.462;2023-06-14T08:39:27;19.00;99.90
49042;DHT22;34859;51.608;11.462;2023-06-14T08:42:14;19.20;99.90
49042;DHT22;34859;51.608;11.462;2023-06-14T08:45:10;19.20;99.90
49042;DHT22;34859;51.608;11.462;2023-06-14T08:48:09;19.30;99.90
49042;DHT22;34859;51.608;11.462;2023-06-14T08:50:59;19.20;99.90
49042;DHT22;34859;51.608;11.462;2023-06-14T08:53:30;19.30;99.90
49042;DHT22;34859;51.608;11.462;2023-06-14T08:55:59;19.40;99.90
49042;DHT22;34859;51.608;11.462;2023-06-14T08:58:28;19.30;99.90
49042;DHT22;34859;51.608;11.462;2023-06-14T09:00:57;19.40;99.90
49042;DHT22;34859;51.608;11.462;2023-06-14T09:03:23;19.60;99.90
49042;DHT22;34859;51.608;11.462;2023-06-14T09:05:56;19.60;99.90
49042;DHT22;34859;51.608;11.462;2023-06-14T09:08:22;19.70;99.90
49042;DHT22;34859;51.608;11.462;2023-06-14T09:10:48;19.70;99.90
49042;DHT22;34859;51.608;11.462;2023-06-14T09:13:14;19.80;99.90
49042;DHT22;34859;51.608;11.462;2023-06-14T09:15:40;19.80;99.90
49042;DHT22;34859;51.608;11.462;2023-06-14T09:18:07;19.80;99.90
49042;DHT22;34859;51.608;11.462;2023-06-14T09:20:32;19.60;99.90
49042;DHT22;34859;51.608;11.462;2023-06-14T09:22:58;19.60;99.90
49042;DHT22;34859;51.608;11.462;2023-06-14T09:25:24;19.70;99.90
49042;DHT22;34859;51.608;11.462;2023-06-14T09:27:51;19.80;99.90
49042;DHT22;34859;51.608;11.462;2023-06-14T09:30:19;19.90;99.90
49042;DHT22;34859;51.608;11.462;2023-06-14T09:32:45;20.10;99.40
49042;DHT22;34859;51.608;11.462;2023-06-14T09:35:10;20.20;99.50
49042;DHT22;34859;51.608;11.462;2023-06-14T09:37:37;20.10;99.90
49042;DHT22;34859;51.608;11.462;2023-06-14T09:40:07;20.00;99.40
49042;DHT22;34859;51.608;11.462;2023-06-14T09:42:32;20.10;99.40
49042;DHT22;34859;51.608;11.462;2023-06-14T09:45:01;20.40;99.60
49042;DHT22;34859;51.608;11.462;2023-06-14T09:47:31;20.70;98.70
49042;DHT22;34859;51.608;11.462;2023-06-14T09:49:57;20.90;98.40
49042;DHT22;34859;51.608;11.462;2023-06-14T09:52:22;21.00;98.30
49042;DHT22;34859;51.608;11.462;2023-06-14T09:54:49;21.00;98.00
49042;DHT22;34859;51.608;11.462;2023-06-14T09:57:23;20.80;98.30
49042;DHT22;34859;51.608;11.462;2023-06-14T09:59:57;21.00;98.30
49042;DHT22;34859;51.608;11.462;2023-06-14T10:02:25;21.00;97.70
49042;DHT22;34859;51.608;11.462;2023-06-14T10:07:23;21.20;97.90
49042;DHT22;34859;51.608;11.462;2023-06-14T10:09:52;21.50;99.10
49042;DHT22;34859;51.608;11.462;2023-06-14T10:12:18;21.90;97.50
49042;DHT22;34859;51.608;11.462;2023-06-14T10:15:07;21.90;97.20
49042;DHT22;34859;51.608;11.462;2023-06-14T10:17:42;21.80;96.70
49042;DHT22;34859;51.608;11.462;2023-06-14T10:22:58;21.30;96.60
49042;DHT22;34859;51.608;11.462;2023-06-14T10:25:28;21.00;96.00
49042;DHT22;34859;51.608;11.462;2023-06-14T10:30:38;21.10;95.60
49042;DHT22;34859;51.608;11.462;2023-06-14T10:33:07;21.40;96.10
49042;DHT22;34859;51.608;11.462;2023-06-14T10:35:33;21.70;95.00
49042;DHT22;34859;51.608;11.462;2023-06-14T10:38:09;21.80;94.60
49042;DHT22;34859;51.608;11.462;2023-06-14T10:40:34;22.00;95.00
49042;DHT22;34859;51.608;11.462;2023-06-14T10:43:01;22.20;95.30
49042;DHT22;34859;51.608;11.462;2023-06-14T10:48:31;21.60;95.00
49042;DHT22;34859;51.608;11.462;2023-06-14T10:51:00;21.80;95.60
49042;DHT22;34859;51.608;11.462;2023-06-14T10:53:27;21.80;95.50
49042;DHT22;34859;51.608;11.462;2023-06-14T10:55:56;21.80;95.40
49042;DHT22;34859;51.608;11.462;2023-06-14T10:58:21;21.70;96.20
49042;DHT22;34859;51.608;11.462;2023-06-14T11:01:07;21.70;95.70
49042;DHT22;34859;51.608;11.462;2023-06-14T11:06:30;21.20;95.10
49042;DHT22;34859;51.608;11.462;2023-06-14T11:09:17;20.90;96.00
49042;DHT22;34859;51.608;11.462;2023-06-14T11:11:49;21.30;96.20
49042;DHT22;34859;51.608;11.462;2023-06-14T11:14:20;21.40;95.10
49042;DHT22;34859;51.608;11.462;2023-06-14T11:16:50;21.40;95.50
49042;DHT22;34859;51.608;11.462;2023-06-14T11:19:17;21.40;95.60
49042;DHT22;34859;51.608;11.462;2023-06-14T11:21:47;21.50;95.90
49042;DHT22;34859;51.608;11.462;2023-06-14T11:24:13;21.50;96.00
49042;DHT22;34859;51.608;11.462;2023-06-14T11:26:39;21.80;95.60
49042;DHT22;34859;51.608;11.462;2023-06-14T11:29:08;21.90;95.00
49042;DHT22;34859;51.608;11.462;2023-06-14T11:31:34;22.10;95.20
49042;DHT22;34859;51.608;11.462;2023-06-14T11:34:00;22.00;95.50
49042;DHT22;34859;51.608;11.462;2023-06-14T11:36:28;21.70;95.10
49042;DHT22;34859;51.608;11.462;2023-06-14T11:39:01;21.60;95.40
49042;DHT22;34859;51.608;11.462;2023-06-14T11:41:37;21.70;96.30
49042;DHT22;34859;51.608;11.462;2023-06-14T11:44:03;21.80;95.70
49042;DHT22;34859;51.608;11.462;2023-06-14T11:46:49;21.90;95.30
49042;DHT22;34859;51.608;11.462;2023-06-14T11:49:17;22.30;96.30
49042;DHT22;34859;51.608;11.462;2023-06-14T11:51:42;22.60;94.70
49042;DHT22;34859;51.608;11.462;2023-06-14T11:54:10;22.70;94.30
49042;DHT22;34859;51.608;11.462;2023-06-14T11:56:37;22.30;94.60
49042;DHT22;34859;51.608;11.462;2023-06-14T11:59:02;21.90;94.60
49042;DHT22;34859;51.608;11.462;2023-06-14T12:01:29;21.70;95.00
49042;DHT22;34859;51.608;11.462;2023-06-14T12:03:55;21.40;95.20
49042;DHT22;34859;51.608;11.462;2023-06-14T12:06:27;21.20;95.40
49042;DHT22;34859;51.608;11.462;2023-06-14T12:09:04;21.10;95.60
49042;DHT22;34859;51.608;11.462;2023-06-14T12:11:33;21.00;96.20
49042;DHT22;34859;51.608;11.462;2023-06-14T12:13:59;21.00;97.00
49042;DHT22;34859;51.608;11.462;2023-06-14T12:16:30;21.10;96.90
49042;DHT22;34859;51.608;11.462;2023-06-14T12:18:59;21.40;97.10
49042;DHT22;34859;51.608;11.462;2023-06-14T12:21:27;21.70;96.60
49042;DHT22;34859;51.608;11.462;2023-06-14T12:23:54;22.00;97.50
49042;DHT22;34859;51.608;11.462;2023-06-14T12:26:19;21.90;96.20
49042;DHT22;34859;51.608;11.462;2023-06-14T12:28:51;21.80;97.10
49042;DHT22;34859;51.608;11.462;2023-06-14T12:31:17;21.90;96.20
49042;DHT22;34859;51.608;11.462;2023-06-14T12:34:04;21.80;96.00
49042;DHT22;34859;51.608;11.462;2023-06-14T12:36:50;21.50;96.00
49042;DHT22;34859;51.608;11.462;2023-06-14T12:39:35;21.30;96.40
49042;DHT22;34859;51.608;11.462;2023-06-14T12:42:24;21.10;97.20
49042;DHT22;34859;51.608;11.462;2023-06-14T12:44:50;21.00;97.20
49042;DHT22;34859;51.608;11.462;2023-06-14T12:47:18;21.00;96.80
49042;DHT22;34859;51.608;11.462;2023-06-14T12:49:44;21.00;97.40
49042;DHT22;34859;51.608;11.462;2023-06-14T12:52:10;21.00;96.80
49042;DHT22;34859;51.608;11.462;2023-06-14T12:54:37;20.90;96.70
49042;DHT22;34859;51.608;11.462;2023-06-14T12:57:02;21.00;96.90
49042;DHT22;34859;51.608;11.462;2023-06-14T12:59:28;20.90;96.70
49042;DHT22;34859;51.608;11.462;2023-06-14T13:01:59;20.90;96.60
49042;DHT22;34859;51.608;11.462;2023-06-14T13:04:27;20.90;96.70
49042;DHT22;34859;51.608;11.462;2023-06-14T13:06:53;20.90;96.80
49042;DHT22;34859;51.608;11.462;2023-06-14T13:09:18;21.00;96.50
49042;DHT22;34859;51.608;11.462;2023-06-14T13:11:44;21.10;97.10
49042;DHT22;34859;51.608;11.462;2023-06-14T13:14:12;21.30;96.60
49042;DHT22;34859;51.608;11.462;2023-06-14T13:16:37;21.30;96.30
49042;DHT22;34859;51.608;11.462;2023-06-14T13:19:03;21.30;96.90
49042;DHT22;34859;51.608;11.462;2023-06-14T13:21:29;21.40;96.80
49042;DHT22;34859;51.608;11.462;2023-06-14T13:23:54;21.80;97.20
49042;DHT22;34859;51.608;11.462;2023-06-14T13:26:20;22.20;96.60
49042;DHT22;34859;51.608;11.462;2023-06-14T13:28:46;22.70;95.80
49042;DHT22;34859;51.608;11.462;2023-06-14T13:31:12;22.50;95.30
49042;DHT22;34859;51.608;11.462;2023-06-14T13:33:38;22.30;95.00
49042;DHT22;34859;51.608;11.462;2023-06-14T13:36:04;22.10;95.80
49042;DHT22;34859;51.608;11.462;2023-06-14T13:38:29;22.10;96.00
49042;DHT22;34859;51.608;11.462;2023-06-14T13:40:57;22.10;95.80
49042;DHT22;34859;51.608;11.462;2023-06-14T13:43:22;22.30;96.70
49042;DHT22;34859;51.608;11.462;2023-06-14T13:45:48;22.40;95.60
49042;DHT22;34859;51.608;11.462;2023-06-14T13:48:14;22.40;95.30
49042;DHT22;34859;51.608;11.462;2023-06-14T13:50:40;22.30;95.10
49042;DHT22;34859;51.608;11.462;2023-06-14T13:53:08;22.30;95.50
49042;DHT22;34859;51.608;11.462;2023-06-14T13:55:33;22.10;95.30
49042;DHT22;34859;51.608;11.462;2023-06-14T13:57:59;22.10;95.20
49042;DHT22;34859;51.608;11.462;2023-06-14T14:00:28;22.10;95.90
49042;DHT22;34859;51.608;11.462;2023-06-14T14:02:53;22.10;96.10
49042;DHT22;34859;51.608;11.462;2023-06-14T14:05:20;22.10;95.30
49042;DHT22;34859;51.608;11.462;2023-06-14T14:07:47;22.10;95.90
49042;DHT22;34859;51.608;11.462;2023-06-14T14:10:12;22.00;95.00
49042;DHT22;34859;51.608;11.462;2023-06-14T14:12:43;21.90;95.30
49042;DHT22;34859;51.608;11.462;2023-06-14T14:15:10;21.90;96.10
49042;DHT22;34859;51.608;11.462;2023-06-14T14:17:38;21.80;95.30
49042;DHT22;34859;51.608;11.462;2023-06-14T14:20:04;21.70;95.80
49042;DHT22;34859;51.608;11.462;2023-06-14T14:22:29;21.60;96.10
49042;DHT22;34859;51.608;11.462;2023-06-14T14:24:57;21.50;95.80
49042;DHT22;34859;51.608;11.462;2023-06-14T14:27:22;21.50;95.20
49042;DHT22;34859;51.608;11.462;2023-06-14T14:29:48;21.40;95.90
49042;DHT22;34859;51.608;11.462;2023-06-14T14:32:13;21.40;95.80
49042;DHT22;34859;51.608;11.462;2023-06-14T14:34:40;21.50;95.60
49042;DHT22;34859;51.608;11.462;2023-06-14T14:37:08;21.50;96.00
49042;DHT22;34859;51.608;11.462;2023-06-14T14:39:33;21.60;96.00
49042;DHT22;34859;51.608;11.462;2023-06-14T14:42:00;21.80;96.10
49042;DHT22;34859;51.608;11.462;2023-06-14T14:44:27;22.00;95.80
49042;DHT22;34859;51.608;11.462;2023-06-14T14:46:53;22.10;95.10
49042;DHT22;34859;51.608;11.462;2023-06-14T14:49:18;22.00;95.40
49042;DHT22;34859;51.608;11.462;2023-06-14T14:51:44;21.90;95.60
49042;DHT22;34859;51.608;11.462;2023-06-14T14:54:10;21.90;95.90
49042;DHT22;34859;51.608;11.462;2023-06-14T14:56:37;21.80;95.20
49042;DHT22;34859;51.608;11.462;2023-06-14T14:59:23;21.70;95.10
49042;DHT22;34859;51.608;11.462;2023-06-14T15:01:49;21.60;95.60
49042;DHT22;34859;51.608;11.462;2023-06-14T15:04:17;21.60;95.90
49042;DHT22;34859;51.608;11.462;2023-06-14T15:06:42;21.50;95.50
49042;DHT22;34859;51.608;11.462;2023-06-14T15:09:08;21.50;96.40
49042;DHT22;34859;51.608;11.462;2023-06-14T15:11:33;21.50;95.60
49042;DHT22;34859;51.608;11.462;2023-06-14T15:13:59;21.50;96.50
49042;DHT22;34859;51.608;11.462;2023-06-14T15:16:24;21.50;96.10
49042;DHT22;34859;51.608;11.462;2023-06-14T15:18:50;21.50;95.60
49042;DHT22;34859;51.608;11.462;2023-06-14T15:21:17;21.70;95.90
49042;DHT22;34859;51.608;11.462;2023-06-14T15:23:45;21.80;96.80
49042;DHT22;34859;51.608;11.462;2023-06-14T15:26:11;21.80;95.90
49042;DHT22;34859;51.608;11.462;2023-06-14T15:28:37;21.80;96.20
49042;DHT22;34859;51.608;11.462;2023-06-14T15:31:02;21.90;95.80
49042;DHT22;34859;51.608;11.462;2023-06-14T15:33:28;21.90;96.30
49042;DHT22;34859;51.608;11.462;2023-06-14T15:35:53;22.00;96.30
49042;DHT22;34859;51.608;11.462;2023-06-14T15:38:22;21.90;95.60
49042;DHT22;34859;51.608;11.462;2023-06-14T15:40:48;21.90;96.30
49042;DHT22;34859;51.608;11.462;2023-06-14T15:43:14;21.80;97.00
49042;DHT22;34859;51.608;11.462;2023-06-14T15:45:52;21.70;97.60
49042;DHT22;34859;51.608;11.462;2023-06-14T15:48:18;21.50;97.10
49042;DHT22;34859;51.608;11.462;2023-06-14T15:50:43;21.40;98.20
49042;DHT22;34859;51.608;11.462;2023-06-14T15:53:10;21.30;96.60
49042;DHT22;34859;51.608;11.462;2023-06-14T15:55:37;21.30;97.10